Terminal Aerodrome Forecast
Issued by NWS

Current Version | Previous Version | Graphics & Text | Print | Product List | Glossary On
Versions: 1 2 3 4 5 6 7 8 9 10 11 12 13 14 15 16 17 18 19 20
000
FTUS41 KPBZ 192300
TAFMGW
TAF
KMGW 192320Z 2000/2024 29003KT P6SM OVC021
     FM200800 VRB03KT 4SM BR OVC020
     FM201400 VRB03KT P6SM OVC025=

USA.gov is the U.S. government's official web portal to all federal, state and local government web resources and services.